Time;durP1;ratioP1;P1;durP2;ratioP2;P2;SDS_P1;SDS_P2;PMS_P1;PMS_P2;Temp;Humidity;BMP_temperature;BMP_pressure;BME280_temperature;BME280_humidity;BME280_pressure;Samples;Min_cycle;Max_cycle;Signal;HPM_P1;HPM_P2
2023/12/04 00:02:09;;;;;;;;;;;;;;;-0.88;57.53;100846.25;4420795;32;32095;-81
2023/12/04 00:04:36;;;;;;;;;;;;;;;-1.08;57.97;100857.97;4422769;32;34750;-81
2023/12/04 00:07:04;;;;;;;;;;;;;;;-0.96;57.54;100854.72;4407687;32;33187;-81
2023/12/04 00:09:31;;;;;;;;;;;;;;;-1.14;58.00;100852.62;4406918;32;33876;-81
2023/12/04 00:12:00;;;;;;;;;;;;;;;-1.13;58.11;100850.09;4421411;32;33640;-80
2023/12/04 00:14:27;;;;;;;;;;;;;;;-1.20;58.23;100857.69;4420025;32;33763;-81
2023/12/04 00:16:55;;;;;;;;;;;;;;;-1.29;58.39;100841.09;4408455;32;34580;-81
2023/12/04 00:19:23;;;;;;;;;;;;;;;-1.21;58.01;100840.41;4407190;32;33095;-81
2023/12/04 00:21:50;;;;;;;;;;;;;;;-1.10;58.00;100844.06;4407672;32;32071;-81
2023/12/04 00:24:17;;;;;;;;;;;;;;;-1.27;58.05;100851.50;4405773;32;32913;-81
2023/12/04 00:26:45;;;;;;;;;;;;;;;-1.04;57.74;100845.09;4394799;32;34276;-81
2023/12/04 00:29:12;;;;;;;;;;;;;;;-1.14;57.94;100852.62;4407451;32;33211;-81
2023/12/04 00:31:40;;;;;;;;;;;;;;;-0.99;57.08;100842.59;4420565;32;33362;-81
2023/12/04 00:34:07;;;;;;;;;;;;;;;-1.06;57.10;100845.88;4421106;32;33974;-81
2023/12/04 00:36:35;;;;;;;;;;;;;;;-1.02;56.56;100850.28;4420039;32;34201;-81
2023/12/04 00:39:03;;;;;;;;;;;;;;;-1.01;56.64;100848.56;4394826;32;32691;-81
2023/12/04 00:41:31;;;;;;;;;;;;;;;-1.12;57.34;100851.81;4420607;32;33292;-81
2023/12/04 00:43:59;;;;;;;;;;;;;;;-1.44;58.12;100853.72;4407717;32;32980;-82
2023/12/04 00:46:26;;;;;;;;;;;;;;;-1.40;58.35;100850.37;4420718;32;34081;-81
2023/12/04 00:48:53;;;;;;;;;;;;;;;-1.22;57.91;100849.03;4414823;32;34356;-80
2023/12/04 00:51:21;;;;;;;;;;;;;;;-1.15;57.19;100848.28;4407248;32;33352;-81
2023/12/04 00:53:48;;;;;;;;;;;;;;;-1.32;58.04;100843.66;4407625;32;34103;-80
2023/12/04 00:56:16;;;;;;;;;;;;;;;-1.42;58.20;100851.19;4417008;32;34180;-80
2023/12/04 00:58:43;;;;;;;;;;;;;;;-1.09;57.55;100851.03;4407638;32;33040;-79
2023/12/04 01:01:10;;;;;;;;;;;;;;;-1.26;57.82;100836.84;4421938;32;33043;-79
2023/12/04 01:03:38;;;;;;;;;;;;;;;-1.40;57.69;100845.19;4420498;32;34892;-80
2023/12/04 01:06:06;;;;;;;;;;;;;;;-1.50;58.01;100840.66;4419623;32;34115;-80
2023/12/04 01:08:33;;;;;;;;;;;;;;;-1.33;57.61;100834.13;4407140;32;34112;-79
2023/12/04 01:11:01;;;;;;;;;;;;;;;-1.24;56.80;100840.31;4395514;32;32515;-79
2023/12/04 01:13:28;;;;;;;;;;;;;;;-1.30;56.88;100835.91;4420986;32;33705;-79
2023/12/04 01:15:55;;;;;;;;;;;;;;;-1.42;57.32;100852.06;4405827;32;34070;-79
2023/12/04 01:18:23;;;;;;;;;;;;;;;-1.32;57.29;100856.59;4419731;32;33798;-79
2023/12/04 01:20:51;;;;;;;;;;;;;;;-1.41;58.00;100853.81;4406934;32;32942;-79
2023/12/04 01:23:19;;;;;;;;;;;;;;;-1.35;57.79;100863.44;4407595;32;34248;-79
2023/12/04 01:25:46;;;;;;;;;;;;;;;-1.16;56.96;100864.69;4420568;32;33990;-79
2023/12/04 01:28:14;;;;;;;;;;;;;;;-1.33;57.58;100870.41;4406649;32;33094;-79
2023/12/04 01:30:41;;;;;;;;;;;;;;;-1.35;57.24;100872.06;4394066;32;31882;-79
2023/12/04 01:33:09;;;;;;;;;;;;;;;-1.51;57.93;100872.59;4419542;32;34074;-80
2023/12/04 01:35:36;;;;;;;;;;;;;;;-1.67;58.10;100876.53;4407147;32;34039;-81
2023/12/04 01:38:04;;;;;;;;;;;;;;;-1.80;58.23;100877.09;4407497;32;34586;-81
2023/12/04 01:40:31;;;;;;;;;;;;;;;-1.61;58.07;100866.31;4421429;32;33138;-81
2023/12/04 01:42:59;;;;;;;;;;;;;;;-1.51;57.26;100862.22;4421658;32;33506;-80
2023/12/04 01:45:26;;;;;;;;;;;;;;;-2.09;58.67;100861.75;4421298;32;35075;-80
2023/12/04 01:47:54;;;;;;;;;;;;;;;-1.91;59.29;100863.87;4408348;32;33302;-80
2023/12/04 01:50:21;;;;;;;;;;;;;;;-1.66;58.79;100867.03;4407748;32;32291;-80
2023/12/04 01:52:49;;;;;;;;;;;;;;;-1.46;57.62;100867.50;4421281;32;33991;-80
2023/12/04 01:55:16;;;;;;;;;;;;;;;-1.39;57.30;100872.84;4397193;32;33870;-80
2023/12/04 01:57:43;;;;;;;;;;;;;;;-1.60;57.38;100878.44;4408920;32;32765;-80
2023/12/04 02:00:12;;;;;;;;;;;;;;;-1.59;57.14;100876.72;4409205;32;32132;-80
2023/12/04 02:02:40;;;;;;;;;;;;;;;-1.74;57.48;100874.66;4409649;32;33932;-80
2023/12/04 02:05:08;;;;;;;;;;;;;;;-1.91;58.26;100866.47;4415468;32;34558;-81
2023/12/04 02:07:36;;;;;;;;;;;;;;;-1.75;57.32;100870.31;4397371;32;32415;-80
2023/12/04 02:10:04;;;;;;;;;;;;;;;-1.71;57.60;100868.66;4408465;32;32615;-81
2023/12/04 02:12:31;;;;;;;;;;;;;;;-1.93;58.00;100863.00;4421142;32;34941;-81
2023/12/04 02:14:59;;;;;;;;;;;;;;;-1.99;58.30;100865.44;4422248;32;33900;-80
2023/12/04 02:17:29;;;;;;;;;;;;;;;-1.85;57.46;100864.06;4420110;32;34924;-81
2023/12/04 02:19:57;;;;;;;;;;;;;;;-1.87;57.65;100865.72;4409470;32;32409;-80
2023/12/04 02:22:24;;;;;;;;;;;;;;;-1.69;56.52;100867.00;4404445;32;34302;-81
2023/12/04 02:24:52;;;;;;;;;;;;;;;-2.00;57.39;100876.59;4420827;32;33991;-81
2023/12/04 02:27:24;;;;;;;;;;;;;;;-2.14;58.18;100873.69;4408609;32;32782;-80
2023/12/04 02:30:01;;;;;;;;;;;;;;;-2.11;57.95;100867.72;4413805;32;33955;-80
2023/12/04 02:32:30;;;;;;;;;;;;;;;-2.08;58.14;100872.97;4408093;32;33082;-81
2023/12/04 02:34:58;;;;;;;;;;;;;;;-2.14;58.51;100867.63;4421805;32;33215;-81
2023/12/04 02:37:25;;;;;;;;;;;;;;;-2.13;58.81;100869.41;4421861;32;34132;-81
2023/12/04 02:39:54;;;;;;;;;;;;;;;-2.12;58.41;100866.84;4408817;32;31877;-81
2023/12/04 02:42:24;;;;;;;;;;;;;;;-2.04;57.58;100858.38;4395619;32;32891;-80
2023/12/04 02:44:52;;;;;;;;;;;;;;;-2.11;58.14;100870.31;4421099;32;35011;-81
2023/12/04 02:47:20;;;;;;;;;;;;;;;-1.99;57.65;100878.38;4421454;32;34236;-80
2023/12/04 02:49:47;;;;;;;;;;;;;;;-2.06;57.77;100882.50;4419432;32;33171;-80
2023/12/04 02:52:14;;;;;;;;;;;;;;;-2.07;58.08;100874.72;4418330;32;33655;-80
2023/12/04 02:54:42;;;;;;;;;;;;;;;-2.13;58.20;100882.34;4408262;32;34246;-80
2023/12/04 02:57:09;;;;;;;;;;;;;;;-2.02;57.56;100874.84;4422040;32;33485;-80
2023/12/04 02:59:37;;;;;;;;;;;;;;;-2.03;57.21;100876.56;4408465;32;32600;-80
2023/12/04 03:02:04;;;;;;;;;;;;;;;-2.00;57.28;100881.78;4421900;32;32296;-80
2023/12/04 03:04:31;;;;;;;;;;;;;;;-2.14;57.37;100888.31;4402834;32;33767;-81
2023/12/04 03:06:59;;;;;;;;;;;;;;;-2.02;57.12;100878.28;4418757;32;33321;-81
2023/12/04 03:09:26;;;;;;;;;;;;;;;-1.94;56.68;100881.09;4420631;32;33016;-81
2023/12/04 03:12:14;;;;;;;;;;;;;;;-1.86;56.35;100880.41;4420854;32;33412;-80
2023/12/04 03:14:41;;;;;;;;;;;;;;;-1.92;56.13;100881.97;4421129;32;32652;-79
2023/12/04 03:17:09;;;;;;;;;;;;;;;-1.95;56.63;100881.91;4420415;32;34397;-79
2023/12/04 03:19:37;;;;;;;;;;;;;;;-2.08;56.64;100891.97;4408756;32;33117;-80
2023/12/04 03:22:04;;;;;;;;;;;;;;;-2.11;56.76;100888.41;4415283;32;34086;-80
2023/12/04 03:24:31;;;;;;;;;;;;;;;-2.27;57.27;100884.56;4422886;32;34803;-80
2023/12/04 03:26:59;;;;;;;;;;;;;;;-2.40;58.06;100895.44;4420880;32;33973;-81
2023/12/04 03:29:26;;;;;;;;;;;;;;;-2.19;57.77;100895.97;4421276;32;33376;-80
2023/12/04 03:31:54;;;;;;;;;;;;;;;-2.24;57.32;100894.13;4421370;32;34211;-80
2023/12/04 03:34:22;;;;;;;;;;;;;;;-2.40;57.63;100901.47;4420771;32;34281;-79
2023/12/04 03:36:50;;;;;;;;;;;;;;;-2.32;57.66;100909.47;4408691;32;33029;-81
2023/12/04 03:39:17;;;;;;;;;;;;;;;-2.40;58.08;100910.97;4408568;32;32649;-81
2023/12/04 03:41:45;;;;;;;;;;;;;;;-2.57;58.50;100900.16;4407735;32;32920;-81
2023/12/04 03:44:12;;;;;;;;;;;;;;;-2.58;58.70;100906.16;4408611;32;33203;-81
2023/12/04 03:46:40;;;;;;;;;;;;;;;-2.28;57.09;100894.87;4421847;32;33686;-80
2023/12/04 03:49:07;;;;;;;;;;;;;;;-2.29;57.28;100896.59;4420931;32;33885;-81
2023/12/04 03:51:35;;;;;;;;;;;;;;;-2.39;57.74;100903.22;4408755;32;32425;-80
2023/12/04 03:54:02;;;;;;;;;;;;;;;-2.34;57.63;100896.47;4421704;32;34877;-80
2023/12/04 03:56:30;;;;;;;;;;;;;;;-2.44;57.92;100899.66;4408145;32;33278;-80
2023/12/04 03:58:57;;;;;;;;;;;;;;;-2.53;58.20;100898.53;4407759;32;32427;-80
2023/12/04 04:01:25;;;;;;;;;;;;;;;-2.46;57.89;100893.56;4421135;32;34355;-80
2023/12/04 04:03:52;;;;;;;;;;;;;;;-2.58;58.02;100885.47;4408221;32;33765;-80
2023/12/04 04:06:20;;;;;;;;;;;;;;;-2.34;56.83;100878.34;4421173;32;34450;-82
2023/12/04 04:08:47;;;;;;;;;;;;;;;-2.31;56.84;100872.41;4407825;32;33626;-81
2023/12/04 04:11:14;;;;;;;;;;;;;;;-2.57;57.95;100875.16;4408246;32;32740;-81
2023/12/04 04:13:42;;;;;;;;;;;;;;;-2.43;57.50;100875.53;4407957;32;33856;-80
2023/12/04 04:16:13;;;;;;;;;;;;;;;-2.66;58.15;100871.47;4407935;32;33750;-80
2023/12/04 04:18:42;;;;;;;;;;;;;;;-2.58;57.77;100876.00;4420643;32;32462;-81
2023/12/04 04:21:10;;;;;;;;;;;;;;;-2.54;57.31;100871.81;4406763;32;32970;-80
2023/12/04 04:23:37;;;;;;;;;;;;;;;-2.44;57.66;100881.53;4420680;32;35116;-80
2023/12/04 04:26:05;;;;;;;;;;;;;;;-2.61;58.40;100886.28;4420796;32;33174;-80
2023/12/04 04:28:32;;;;;;;;;;;;;;;-2.63;58.32;100889.66;4407768;32;32361;-80
2023/12/04 04:31:00;;;;;;;;;;;;;;;-2.59;58.09;100894.06;4422642;32;32690;-80
2023/12/04 04:33:27;;;;;;;;;;;;;;;-2.69;58.24;100892.09;4415933;32;33409;-80
2023/12/04 04:35:55;;;;;;;;;;;;;;;-2.59;58.00;100889.78;4407857;32;34338;-80
2023/12/04 04:38:22;;;;;;;;;;;;;;;-2.57;57.73;100895.84;4407182;32;31871;-81
2023/12/04 04:40:49;;;;;;;;;;;;;;;-2.77;57.88;100901.31;4406976;32;32973;-80
2023/12/04 04:43:17;;;;;;;;;;;;;;;-2.77;58.34;100903.91;4408188;32;32901;-81
2023/12/04 04:45:44;;;;;;;;;;;;;;;-2.53;57.48;100891.66;4413373;32;33812;-79
2023/12/04 04:48:11;;;;;;;;;;;;;;;-2.49;57.37;100888.31;4419491;32;33379;-79
2023/12/04 04:50:39;;;;;;;;;;;;;;;-2.44;57.17;100886.72;4405694;32;33886;-79
2023/12/04 04:53:06;;;;;;;;;;;;;;;-2.46;57.11;100885.81;4420992;32;34961;-79
2023/12/04 04:55:34;;;;;;;;;;;;;;;-2.75;57.49;100889.31;4407335;32;33351;-79
2023/12/04 04:58:18;;;;;;;;;;;;;;;-2.56;57.65;100894.16;4421150;32;33465;-80
2023/12/04 05:00:46;;;;;;;;;;;;;;;-2.48;56.96;100910.75;4420327;32;33968;-80
2023/12/04 05:03:13;;;;;;;;;;;;;;;-2.23;56.15;100909.69;4406801;32;33843;-80
2023/12/04 05:05:41;;;;;;;;;;;;;;;-2.59;57.21;100909.59;4405961;32;33210;-79
2023/12/04 05:08:09;;;;;;;;;;;;;;;-2.66;57.36;100912.81;4419822;32;32986;-81
2023/12/04 05:10:38;;;;;;;;;;;;;;;-2.72;57.66;100903.19;4414866;32;33012;-79
2023/12/04 05:13:06;;;;;;;;;;;;;;;-2.88;58.22;100904.50;4419411;32;34890;-79
2023/12/04 05:15:34;;;;;;;;;;;;;;;-2.73;57.77;100903.16;4415504;32;33351;-79
2023/12/04 05:18:01;;;;;;;;;;;;;;;-2.66;57.75;100908.56;4420182;32;34200;-79
2023/12/04 05:20:29;;;;;;;;;;;;;;;-2.49;56.97;100902.94;4407352;32;33762;-80
2023/12/04 05:22:57;;;;;;;;;;;;;;;-2.40;56.32;100909.25;4419873;32;34284;-80
2023/12/04 05:25:24;;;;;;;;;;;;;;;-2.68;57.54;100910.22;4419739;32;34555;-80
2023/12/04 05:28:00;;;;;;;;;;;;;;;-2.76;57.55;100910.81;4407837;32;32405;-80
2023/12/04 05:30:27;;;;;;;;;;;;;;;-2.64;57.65;100908.59;4419607;32;34118;-80
2023/12/04 05:32:55;;;;;;;;;;;;;;;-2.57;56.97;100907.91;4420423;32;34211;-80
2023/12/04 05:35:22;;;;;;;;;;;;;;;-2.59;57.63;100909.59;4420530;32;33913;-80
2023/12/04 05:37:50;;;;;;;;;;;;;;;-2.72;57.89;100902.31;4407214;32;33448;-80
2023/12/04 05:40:17;;;;;;;;;;;;;;;-2.55;57.18;100903.66;4420651;32;34215;-80
2023/12/04 05:42:45;;;;;;;;;;;;;;;-2.48;56.89;100902.13;4407734;32;33174;-79
2023/12/04 05:45:12;;;;;;;;;;;;;;;-2.35;55.87;100909.38;4407127;32;32761;-79
2023/12/04 05:47:40;;;;;;;;;;;;;;;-2.54;56.57;100905.41;4407072;32;32171;-79
2023/12/04 05:50:08;;;;;;;;;;;;;;;-2.59;56.59;100912.19;4419538;32;33401;-79
2023/12/04 05:52:35;;;;;;;;;;;;;;;-2.74;57.12;100909.19;4399864;32;34925;-79
2023/12/04 05:55:02;;;;;;;;;;;;;;;-2.59;56.33;100909.59;4419372;32;34036;-79
2023/12/04 05:57:30;;;;;;;;;;;;;;;-2.64;56.88;100899.13;4419579;32;32704;-79
2023/12/04 05:59:58;;;;;;;;;;;;;;;-2.52;56.55;100905.44;4419555;32;33755;-79
2023/12/04 06:02:27;;;;;;;;;;;;;;;-2.48;56.31;100908.16;4405842;32;33616;-79
2023/12/04 06:04:55;;;;;;;;;;;;;;;-2.69;56.47;100911.06;4419508;32;34251;-79
2023/12/04 06:07:22;;;;;;;;;;;;;;;-2.74;56.91;100914.34;4419021;32;32939;-80
2023/12/04 06:09:50;;;;;;;;;;;;;;;-2.85;57.38;100904.59;4418906;32;33404;-80
2023/12/04 06:12:17;;;;;;;;;;;;;;;-2.61;56.81;100906.97;4419594;32;34946;-81
2023/12/04 06:14:45;;;;;;;;;;;;;;;-2.73;57.30;100910.91;4406365;32;33535;-81
2023/12/04 06:17:12;;;;;;;;;;;;;;;-2.53;56.94;100914.91;4406705;32;32834;-81
2023/12/04 06:19:39;;;;;;;;;;;;;;;-2.67;56.89;100917.12;4419064;32;33727;-81
2023/12/04 06:22:07;;;;;;;;;;;;;;;-2.61;56.73;100916.44;4418454;32;34056;-81
2023/12/04 06:24:35;;;;;;;;;;;;;;;-2.70;56.76;100921.34;4421195;32;34787;-80
2023/12/04 06:27:05;;;;;;;;;;;;;;;-3.01;57.86;100914.44;4406796;32;31768;-80
2023/12/04 06:29:32;;;;;;;;;;;;;;;-2.70;57.47;100923.94;4418239;32;33677;-80
2023/12/04 06:32:00;;;;;;;;;;;;;;;-2.56;56.98;100922.63;4406318;32;33590;-79
2023/12/04 06:34:27;;;;;;;;;;;;;;;-2.72;57.56;100917.84;4393264;32;33354;-79
2023/12/04 06:36:55;;;;;;;;;;;;;;;-2.53;57.30;100922.66;4406911;32;32748;-79
2023/12/04 06:39:22;;;;;;;;;;;;;;;-2.60;56.79;100924.22;4406553;32;32919;-79
2023/12/04 06:41:50;;;;;;;;;;;;;;;-2.71;57.54;100925.63;4417864;32;33829;-80
2023/12/04 06:44:17;;;;;;;;;;;;;;;-2.68;57.27;100937.78;4418361;32;32242;-80
2023/12/04 06:46:45;;;;;;;;;;;;;;;-2.53;57.35;100929.56;4406687;32;32430;-81
2023/12/04 06:49:13;;;;;;;;;;;;;;;-2.52;57.24;100932.19;4406788;32;34767;-80
2023/12/04 06:51:40;;;;;;;;;;;;;;;-2.55;56.94;100934.69;4417666;32;34675;-81
2023/12/04 06:54:08;;;;;;;;;;;;;;;-2.42;56.51;100939.38;4384445;32;32661;-80
2023/12/04 06:56:35;;;;;;;;;;;;;;;-2.46;56.87;100942.72;4416384;32;32860;-80
2023/12/04 06:59:02;;;;;;;;;;;;;;;-2.46;57.12;100942.72;4405016;32;33851;-80
2023/12/04 07:01:30;;;;;;;;;;;;;;;-2.37;57.20;100932.63;4398030;32;33458;-80
2023/12/04 07:03:58;;;;;;;;;;;;;;;-2.26;57.19;100932.03;4417895;32;33756;-81
2023/12/04 07:06:25;;;;;;;;;;;;;;;-2.17;57.00;100933.13;4396187;32;33090;-81
2023/12/04 07:08:52;;;;;;;;;;;;;;;-2.28;57.63;100938.84;4418191;32;34091;-80
2023/12/04 07:11:20;;;;;;;;;;;;;;;-2.29;58.04;100937.97;4405516;32;34000;-81
2023/12/04 07:13:47;;;;;;;;;;;;;;;-2.08;57.32;100941.13;4409762;32;35278;-79
2023/12/04 07:16:15;;;;;;;;;;;;;;;-2.07;57.76;100944.59;4404213;32;32916;-81
2023/12/04 07:18:43;;;;;;;;;;;;;;;-1.93;57.65;100930.28;4407070;32;33456;-81
2023/12/04 07:21:11;;;;;;;;;;;;;;;-1.91;57.58;100931.19;4419457;32;33885;-81
2023/12/04 07:23:38;;;;;;;;;;;;;;;-1.81;57.92;100946.09;4416683;32;34376;-80
2023/12/04 07:26:06;;;;;;;;;;;;;;;-1.82;57.94;100939.19;4417500;32;33923;-80
2023/12/04 07:28:34;;;;;;;;;;;;;;;-1.63;57.84;100931.87;4405582;32;33536;-79
2023/12/04 07:31:01;;;;;;;;;;;;;;;-1.49;57.33;100937.38;4418443;32;33818;-78
2023/12/04 07:33:29;;;;;;;;;;;;;;;-1.26;56.98;100927.53;4381352;32;34206;-79
2023/12/04 07:35:57;;;;;;;;;;;;;;;-1.30;57.40;100929.16;4409264;32;32983;-79
2023/12/04 07:38:24;;;;;;;;;;;;;;;-1.08;57.12;100921.03;4403265;32;33353;-79
2023/12/04 07:40:55;;;;;;;;;;;;;;;-1.00;56.28;100920.31;4396995;32;36549;-79
2023/12/04 07:43:23;;;;;;;;;;;;;;;-1.01;56.91;100919.44;4380502;32;33106;-79
2023/12/04 07:45:50;;;;;;;;;;;;;;;-0.72;56.57;100924.34;4415785;32;32700;-79
2023/12/04 07:48:18;;;;;;;;;;;;;;;-0.68;56.79;100932.22;4418014;32;33667;-79
2023/12/04 07:50:46;;;;;;;;;;;;;;;-0.36;55.57;100930.25;4418326;32;33876;-79
2023/12/04 07:53:13;;;;;;;;;;;;;;;-0.26;55.33;100931.28;4416381;32;33981;-79
2023/12/04 07:55:41;;;;;;;;;;;;;;;-0.13;55.38;100933.28;4407180;32;33133;-79
2023/12/04 07:58:09;;;;;;;;;;;;;;;-0.42;55.95;100930.16;4391299;32;35666;-79
2023/12/04 08:00:37;;;;;;;;;;;;;;;-0.43;56.82;100925.78;4405777;32;31040;-79
2023/12/04 08:03:05;;;;;;;;;;;;;;;-0.47;57.29;100926.59;4403517;32;33065;-79
2023/12/04 08:05:32;;;;;;;;;;;;;;;-0.25;57.30;100922.66;4407155;32;33096;-79
2023/12/04 08:08:00;;;;;;;;;;;;;;;-0.20;57.18;100921.00;4403807;32;33919;-79
2023/12/04 08:10:27;;;;;;;;;;;;;;;-0.14;57.13;100917.63;4418191;32;37100;-79
2023/12/04 08:12:55;;;;;;;;;;;;;;;-0.02;57.04;100925.66;4395059;32;32932;-79
2023/12/04 08:15:22;;;;;;;;;;;;;;;0.23;56.54;100933.00;4396736;32;32602;-79
2023/12/04 08:17:50;;;;;;;;;;;;;;;0.27;56.29;100927.88;4408464;32;34510;-79
2023/12/04 08:20:22;;;;;;;;;;;;;;;0.25;56.68;100936.50;4404238;32;32924;-79
2023/12/04 08:23:00;;;;;;;;;;;;;;;0.28;56.53;100938.28;4409545;32;33370;-79
2023/12/04 08:25:27;;;;;;;;;;;;;;;0.57;55.70;100933.56;4394529;32;33357;-79
2023/12/04 08:27:55;;;;;;;;;;;;;;;0.52;56.33;100940.38;4418865;32;33538;-79
2023/12/04 08:30:23;;;;;;;;;;;;;;;0.80;55.71;100930.41;4404607;32;33277;-80
2023/12/04 08:32:51;;;;;;;;;;;;;;;0.72;56.27;100933.78;4413306;32;32856;-79
2023/12/04 08:35:18;;;;;;;;;;;;;;;0.81;56.35;100927.84;4417770;32;34037;-79
2023/12/04 08:37:46;;;;;;;;;;;;;;;0.94;56.21;100934.06;4381812;32;33256;-79
2023/12/04 08:40:14;;;;;;;;;;;;;;;1.19;56.03;100928.34;4409559;32;33857;-79
2023/12/04 08:42:41;;;;;;;;;;;;;;;1.27;55.82;100931.00;4404791;32;33387;-79
2023/12/04 08:45:09;;;;;;;;;;;;;;;1.39;55.91;100928.56;4393188;32;30211;-85
2023/12/04 08:47:37;;;;;;;;;;;;;;;1.47;56.27;100928.63;4403092;32;33007;-80
2023/12/04 08:50:05;;;;;;;;;;;;;;;1.93;54.46;100921.31;4419280;32;33931;-81
2023/12/04 08:52:33;;;;;;;;;;;;;;;1.79;54.83;100918.56;4405081;32;33951;-81
2023/12/04 08:55:01;;;;;;;;;;;;;;;1.59;55.42;100926.19;4407638;32;33621;-81
2023/12/04 08:57:29;;;;;;;;;;;;;;;1.68;55.07;100925.41;4405813;32;33363;-81
2023/12/04 08:59:58;;;;;;;;;;;;;;;1.97;54.91;100915.28;4379938;32;34228;-81
2023/12/04 09:02:25;;;;;;;;;;;;;;;1.76;53.62;100919.44;4418589;32;34399;-81
2023/12/04 09:04:53;;;;;;;;;;;;;;;1.72;53.80;100922.00;4416760;32;33361;-81
2023/12/04 09:07:20;;;;;;;;;;;;;;;1.93;52.59;100918.72;4407403;32;33588;-81
2023/12/04 09:09:51;;;;;;;;;;;;;;;1.89;52.87;100925.63;4394875;32;33834;-81
2023/12/04 09:12:18;;;;;;;;;;;;;;;2.21;51.75;100918.09;4397336;32;33899;-81
2023/12/04 09:14:46;;;;;;;;;;;;;;;2.58;51.34;100913.16;4418601;32;33972;-81
2023/12/04 09:17:14;;;;;;;;;;;;;;;2.11;51.51;100915.41;4396332;32;33414;-81
2023/12/04 09:19:41;;;;;;;;;;;;;;;2.18;50.62;100912.84;4416143;32;33954;-81
2023/12/04 09:22:09;;;;;;;;;;;;;;;1.86;51.78;100924.72;4407387;32;34971;-81
2023/12/04 09:24:45;;;;;;;;;;;;;;;2.15;50.97;100915.44;4418736;32;33841;-81
2023/12/04 09:27:13;;;;;;;;;;;;;;;2.50;49.61;100909.62;4404118;32;34245;-81
2023/12/04 09:29:41;;;;;;;;;;;;;;;2.52;49.72;100916.59;4418234;32;34251;-81
2023/12/04 09:32:09;;;;;;;;;;;;;;;2.85;49.16;100906.34;4416785;32;33916;-81
2023/12/04 09:34:37;;;;;;;;;;;;;;;3.05;48.51;100896.91;4403863;32;33067;-81
2023/12/04 09:37:05;;;;;;;;;;;;;;;2.73;48.46;100897.59;4409841;32;33587;-81
2023/12/04 09:39:39;;;;;;;;;;;;;;;2.18;49.35;100885.91;4405740;32;33190;-81
2023/12/04 09:42:07;;;;;;;;;;;;;;;2.44;49.38;100888.72;4417881;32;33395;-81
2023/12/04 09:44:36;;;;;;;;;;;;;;;2.94;48.51;100880.31;4395477;32;32164;-81
2023/12/04 09:47:03;;;;;;;;;;;;;;;2.79;48.68;100874.16;4406096;32;32979;-81
2023/12/04 09:49:31;;;;;;;;;;;;;;;3.12;48.21;100869.06;4404548;32;34328;-82
2023/12/04 09:51:58;;;;;;;;;;;;;;;3.32;47.90;100865.69;4418426;32;35060;-82
2023/12/04 09:54:26;;;;;;;;;;;;;;;2.95;48.40;100875.13;4392987;32;33900;-82
2023/12/04 09:56:55;;;;;;;;;;;;;;;3.24;48.07;100864.78;4417665;32;31608;-82
2023/12/04 09:59:23;;;;;;;;;;;;;;;3.37;48.53;100859.59;4413361;32;34988;-81
2023/12/04 10:01:51;;;;;;;;;;;;;;;2.98;48.86;100861.19;4397229;32;33928;-82
2023/12/04 10:04:19;;;;;;;;;;;;;;;2.79;49.74;100853.28;4380696;32;32339;-81
2023/12/04 10:06:47;;;;;;;;;;;;;;;3.38;49.36;100850.91;4407008;32;32963;-83
2023/12/04 10:09:17;;;;;;;;;;;;;;;3.16;49.31;100848.22;4403644;32;34697;-82
2023/12/04 10:11:45;;;;;;;;;;;;;;;3.61;48.58;100838.75;4380481;32;33046;-81
2023/12/04 10:14:17;;;;;;;;;;;;;;;4.00;47.92;100839.66;4410805;32;32578;-82
2023/12/04 10:16:45;;;;;;;;;;;;;;;3.73;48.36;100833.53;4417489;32;34533;-82
2023/12/04 10:19:17;;;;;;;;;;;;;;;4.06;48.35;100823.97;4409155;32;33557;-82
2023/12/04 10:21:46;;;;;;;;;;;;;;;4.16;47.69;100823.06;4407244;32;32601;-82
2023/12/04 10:24:30;;;;;;;;;;;;;;;4.21;47.92;100820.44;4394504;32;31948;-83
2023/12/04 10:26:57;;;;;;;;;;;;;;;4.43;47.57;100810.84;4403597;32;33938;-82
2023/12/04 10:29:30;;;;;;;;;;;;;;;4.99;46.50;100801.91;4420038;32;34306;-82
2023/12/04 10:32:00;;;;;;;;;;;;;;;5.21;45.76;100806.13;4414810;32;34219;-82
2023/12/04 10:34:33;;;;;;;;;;;;;;;5.09;45.65;100798.38;4419989;32;32091;-82
2023/12/04 10:37:02;;;;;;;;;;;;;;;5.32;45.19;100790.38;4397665;32;33719;-82
2023/12/04 10:39:30;;;;;;;;;;;;;;;4.99;44.80;100776.59;4407674;32;33738;-82
2023/12/04 10:42:02;;;;;;;;;;;;;;;5.43;44.27;100779.81;4400300;32;34234;-82
2023/12/04 10:44:30;;;;;;;;;;;;;;;5.55;43.68;100780.59;4419279;32;34153;-83
2023/12/04 10:47:01;;;;;;;;;;;;;;;5.51;43.07;100783.25;4403308;32;33638;-83
2023/12/04 10:49:28;;;;;;;;;;;;;;;5.21;43.87;100771.22;4419711;32;35016;-83
2023/12/04 10:51:59;;;;;;;;;;;;;;;5.34;43.58;100768.53;4418934;32;33806;-83
2023/12/04 10:54:27;;;;;;;;;;;;;;;5.61;43.19;100771.84;4391599;32;32898;-83
2023/12/04 10:56:57;;;;;;;;;;;;;;;5.06;43.61;100772.19;4418740;32;33603;-83
2023/12/04 10:59:27;;;;;;;;;;;;;;;5.62;43.20;100757.84;4405928;32;34271;-82
2023/12/04 11:01:55;;;;;;;;;;;;;;;5.57;43.54;100757.00;4419164;32;33022;-82
2023/12/04 11:04:23;;;;;;;;;;;;;;;5.47;42.99;100758.84;4396416;32;32024;-83
2023/12/04 11:06:52;;;;;;;;;;;;;;;5.60;43.04;100759.59;4404632;32;33392;-82
2023/12/04 11:09:20;;;;;;;;;;;;;;;5.63;42.74;100751.72;4406206;32;33251;-82
2023/12/04 11:11:51;;;;;;;;;;;;;;;5.81;42.26;100748.94;4403193;32;32991;-83
2023/12/04 11:14:22;;;;;;;;;;;;;;;5.97;42.44;100738.34;4409176;32;32919;-82
2023/12/04 11:16:56;;;;;;;;;;;;;;;5.95;42.35;100734.88;4391502;32;32780;-83
2023/12/04 11:19:27;;;;;;;;;;;;;;;5.09;43.57;100746.00;4418351;32;35589;-82
2023/12/04 11:21:57;;;;;;;;;;;;;;;5.84;42.27;100743.69;4406198;32;32923;-82
2023/12/04 11:24:24;;;;;;;;;;;;;;;5.84;42.34;100727.94;4404975;32;32706;-82
2023/12/04 11:26:52;;;;;;;;;;;;;;;5.68;43.01;100733.34;4406405;32;31800;-82
2023/12/04 11:29:19;;;;;;;;;;;;;;;5.36;44.04;100732.72;4419498;32;32119;-82
2023/12/04 11:31:47;;;;;;;;;;;;;;;5.34;43.77;100731.84;4419461;32;33020;-83
2023/12/04 11:34:14;;;;;;;;;;;;;;;5.72;43.31;100722.81;4406611;32;33360;-83
2023/12/04 11:36:42;;;;;;;;;;;;;;;5.16;44.37;100721.50;4417268;32;33426;-83
2023/12/04 11:39:10;;;;;;;;;;;;;;;5.03;44.91;100725.09;4398164;32;34433;-84
2023/12/04 11:41:38;;;;;;;;;;;;;;;5.18;44.26;100724.13;4412725;32;34703;-83
2023/12/04 11:44:05;;;;;;;;;;;;;;;5.21;44.31;100717.09;4385380;32;32181;-83
2023/12/04 11:46:33;;;;;;;;;;;;;;;5.29;44.13;100712.69;4405895;32;32362;-83
2023/12/04 11:49:19;;;;;;;;;;;;;;;5.19;44.20;100711.03;4406117;32;32806;-83
2023/12/04 11:51:48;;;;;;;;;;;;;;;4.72;45.63;100725.28;4407364;32;32114;-83
2023/12/04 11:54:19;;;;;;;;;;;;;;;4.84;45.89;100712.13;4406343;32;32119;-83
2023/12/04 11:56:56;;;;;;;;;;;;;;;4.97;45.41;100704.19;4418072;32;33572;-82
2023/12/04 11:59:26;;;;;;;;;;;;;;;5.06;45.52;100704.13;4419522;32;34074;-83
2023/12/04 12:01:54;;;;;;;;;;;;;;;5.17;44.86;100694.44;4394547;32;33992;-83
2023/12/04 12:04:23;;;;;;;;;;;;;;;5.31;44.65;100686.47;4418849;32;32617;-83
2023/12/04 12:06:50;;;;;;;;;;;;;;;5.24;45.08;100688.28;4418324;32;33758;-83
2023/12/04 12:09:18;;;;;;;;;;;;;;;5.11;44.80;100686.66;4405487;32;34172;-82
2023/12/04 12:11:46;;;;;;;;;;;;;;;5.05;45.24;100678.84;4417410;32;34741;-83
2023/12/04 12:14:13;;;;;;;;;;;;;;;5.24;44.91;100672.59;4392791;32;32940;-83
2023/12/04 12:16:42;;;;;;;;;;;;;;;4.82;45.72;100658.91;4388798;32;31341;-83
2023/12/04 12:19:10;;;;;;;;;;;;;;;5.06;45.27;100652.66;4418608;32;34929;-83
2023/12/04 12:21:38;;;;;;;;;;;;;;;4.73;45.91;100642.41;4397708;32;32943;-83
2023/12/04 12:24:06;;;;;;;;;;;;;;;4.48;46.60;100647.78;4405596;32;31693;-83
2023/12/04 12:26:34;;;;;;;;;;;;;;;4.84;45.87;100644.09;4405250;32;33349;-83
2023/12/04 12:29:01;;;;;;;;;;;;;;;4.92;45.72;100648.41;4417598;32;33465;-83
2023/12/04 12:31:29;;;;;;;;;;;;;;;4.72;46.88;100652.00;4408066;32;34415;-83
2023/12/04 12:33:56;;;;;;;;;;;;;;;4.94;46.11;100641.38;4417466;32;33027;-83
2023/12/04 12:36:25;;;;;;;;;;;;;;;4.98;45.61;100640.50;4412140;32;34773;-83
2023/12/04 12:38:54;;;;;;;;;;;;;;;4.68;46.45;100628.50;4406007;32;33275;-79
2023/12/04 12:41:21;;;;;;;;;;;;;;;5.04;45.86;100635.22;4406604;32;34217;-78
2023/12/04 12:43:51;;;;;;;;;;;;;;;4.36;47.26;100638.25;4388665;32;31805;-79
2023/12/04 12:46:19;;;;;;;;;;;;;;;4.88;46.20;100632.69;4408710;32;34456;-79